createdAt,value
2023-04-27T00:00:26.781Z,1.18
2023-04-27T00:01:26.812Z,1.35
2023-04-27T00:02:26.957Z,1.13
2023-04-27T00:03:27.111Z,1.59
2023-04-27T00:04:27.009Z,1.52
2023-04-27T00:05:26.974Z,1.05
2023-04-27T00:06:26.923Z,0.96
2023-04-27T00:07:26.982Z,1.25
2023-04-27T00:08:26.967Z,1.31
2023-04-27T00:09:27.007Z,1.47
2023-04-27T00:10:27.024Z,1.33
2023-04-27T00:11:27.056Z,1.28
2023-04-27T00:12:27.072Z,1.28
2023-04-27T00:13:27.109Z,1.12
2023-04-27T00:14:27.133Z,1.12
2023-04-27T00:15:27.144Z,1.27
2023-04-27T00:16:27.217Z,1.30
2023-04-27T00:17:27.241Z,1.09
2023-04-27T00:18:27.214Z,1.09
2023-04-27T00:19:27.248Z,1.08
2023-04-27T00:20:27.278Z,1.36
2023-04-27T00:21:27.309Z,1.13
2023-04-27T00:22:27.325Z,1.10
2023-04-27T00:23:27.353Z,1.45
2023-04-27T00:24:27.391Z,1.33
2023-04-27T00:25:27.416Z,1.29
2023-04-27T00:26:27.426Z,1.20
2023-04-27T00:27:27.438Z,1.40
2023-04-27T00:28:27.468Z,1.24
2023-04-27T00:29:27.497Z,0.92
2023-04-27T00:30:27.510Z,1.15
2023-04-27T00:31:27.602Z,1.30
2023-04-27T00:32:27.601Z,1.19
2023-04-27T00:33:27.611Z,0.94
2023-04-27T00:34:27.629Z,1.22
2023-04-27T00:35:27.670Z,1.06
2023-04-27T00:36:27.681Z,1.50
2023-04-27T00:37:27.719Z,1.19
2023-04-27T00:38:27.736Z,1.15
2023-04-27T00:39:27.756Z,1.35
2023-04-27T00:40:27.849Z,1.16
2023-04-27T00:41:27.823Z,1.19
2023-04-27T00:42:27.853Z,1.01
2023-04-27T00:43:27.895Z,1.34
2023-04-27T00:44:27.930Z,1.20
2023-04-27T00:45:27.972Z,1.35
2023-04-27T00:46:28.040Z,0.79
2023-04-27T00:47:28.007Z,1.17
2023-04-27T00:48:28.074Z,1.23
2023-04-27T00:49:28.059Z,1.34
2023-04-27T00:50:28.108Z,1.09
2023-04-27T00:51:28.113Z,1.00
2023-04-27T00:52:28.158Z,1.38
2023-04-27T00:53:28.201Z,1.06
2023-04-27T00:54:28.224Z,1.13
2023-04-27T00:55:28.261Z,0.97
2023-04-27T00:56:28.280Z,0.86
2023-04-27T00:57:28.294Z,1.41
2023-04-27T00:58:28.329Z,0.89
2023-04-27T00:59:28.358Z,1.43
2023-04-27T01:00:28.403Z,1.07
2023-04-27T01:01:28.480Z,1.32
2023-04-27T01:02:28.538Z,1.22
2023-04-27T01:03:28.682Z,1.13
2023-04-27T01:04:28.536Z,1.12
2023-04-27T01:05:28.880Z,1.39
2023-04-27T01:06:28.340Z,1.43
2023-04-27T01:07:28.325Z,1.09
2023-04-27T01:08:28.309Z,0.93
2023-04-27T01:09:28.305Z,1.12
2023-04-27T01:10:28.316Z,1.04
2023-04-27T01:11:28.289Z,1.22
2023-04-27T01:12:28.278Z,1.08
2023-04-27T01:13:28.291Z,1.07
2023-04-27T01:14:28.248Z,1.34
2023-04-27T01:15:28.251Z,1.25
2023-04-27T01:16:28.281Z,0.93
2023-04-27T01:17:28.263Z,1.32
2023-04-27T01:18:28.292Z,1.09
2023-04-27T01:19:28.325Z,1.10
2023-04-27T01:20:28.361Z,1.29
2023-04-27T01:21:28.394Z,1.29
2023-04-27T01:22:28.429Z,1.16
2023-04-27T01:23:28.452Z,1.02
2023-04-27T01:24:28.490Z,1.37
2023-04-27T01:25:28.538Z,1.21
2023-04-27T01:26:28.568Z,1.00
2023-04-27T01:27:28.608Z,1.29
2023-04-27T01:28:28.654Z,0.98
2023-04-27T01:29:28.653Z,0.99
2023-04-27T01:30:28.699Z,0.90
2023-04-27T01:31:28.743Z,0.99
2023-04-27T01:32:28.783Z,1.26
2023-04-27T01:33:28.817Z,0.98
2023-04-27T01:34:28.827Z,1.28
2023-04-27T01:35:28.867Z,1.28
2023-04-27T01:36:28.912Z,1.11
2023-04-27T01:37:28.975Z,1.25
2023-04-27T01:38:29.074Z,1.26
2023-04-27T01:39:29.129Z,1.21
2023-04-27T01:40:29.039Z,1.06
2023-04-27T01:41:29.111Z,1.40
2023-04-27T01:42:29.120Z,1.36
2023-04-27T01:43:29.185Z,1.15
2023-04-27T01:44:29.238Z,1.03
2023-04-27T01:45:29.188Z,1.07
2023-04-27T01:46:29.251Z,1.01
2023-04-27T01:47:29.292Z,1.05
2023-04-27T01:48:29.296Z,1.09
2023-04-27T01:49:29.341Z,1.50
2023-04-27T01:50:29.376Z,1.25
2023-04-27T01:51:29.409Z,1.00
2023-04-27T01:52:29.458Z,1.16
2023-04-27T01:53:29.494Z,1.20
2023-04-27T01:54:29.548Z,1.27
2023-04-27T01:55:29.554Z,1.24
2023-04-27T01:56:29.587Z,1.07
2023-04-27T01:57:29.620Z,1.02
2023-04-27T01:58:29.653Z,1.08
2023-04-27T01:59:29.697Z,0.74
2023-04-27T02:00:29.754Z,1.26
2023-04-27T02:01:29.793Z,1.29
2023-04-27T02:02:29.918Z,1.09
2023-04-27T02:03:30.000Z,1.09
2023-04-27T02:04:30.035Z,1.20
2023-04-27T02:05:29.927Z,1.22
2023-04-27T02:06:29.942Z,1.22
2023-04-27T02:07:29.972Z,1.03
2023-04-27T02:08:30.014Z,1.25
2023-04-27T02:09:30.042Z,1.01
2023-04-27T02:10:30.093Z,1.08
2023-04-27T02:11:30.111Z,1.46
2023-04-27T02:12:30.129Z,0.89
2023-04-27T02:13:30.177Z,1.28
2023-04-27T02:14:30.202Z,1.03
2023-04-27T02:15:30.229Z,0.97
2023-04-27T02:16:30.295Z,0.99
2023-04-27T02:17:30.315Z,1.24
2023-04-27T02:18:30.327Z,0.98
2023-04-27T02:19:30.367Z,1.31
2023-04-27T02:20:30.398Z,1.23
2023-04-27T02:21:30.425Z,1.10
2023-04-27T02:22:30.447Z,0.96
2023-04-27T02:23:30.486Z,1.14
2023-04-27T02:24:30.530Z,1.08
2023-04-27T02:25:30.553Z,1.60
2023-04-27T02:26:30.608Z,1.05
2023-04-27T02:27:30.625Z,1.28
2023-04-27T02:28:30.654Z,1.35
2023-04-27T02:29:30.701Z,1.14
2023-04-27T02:30:30.752Z,1.36
2023-04-27T02:31:30.796Z,1.21
2023-04-27T02:32:30.860Z,0.87
2023-04-27T02:33:30.837Z,1.10
2023-04-27T02:34:30.871Z,1.07
2023-04-27T02:35:31.397Z,1.27
2023-04-27T02:36:30.954Z,1.32
2023-04-27T02:37:30.981Z,1.29
2023-04-27T02:38:31.051Z,1.07
2023-04-27T02:39:31.067Z,1.35
2023-04-27T02:40:31.136Z,1.21
2023-04-27T02:41:31.156Z,1.11
2023-04-27T02:42:31.195Z,1.17
2023-04-27T02:43:31.242Z,1.14
2023-04-27T02:44:31.270Z,1.53
2023-04-27T02:45:31.328Z,1.30
2023-04-27T02:46:31.375Z,1.03
2023-04-27T02:47:31.412Z,1.26
2023-04-27T02:48:31.437Z,1.14
2023-04-27T02:49:31.454Z,0.97
2023-04-27T02:50:31.528Z,1.24
2023-04-27T02:51:31.524Z,1.10
2023-04-27T02:52:31.562Z,1.12
2023-04-27T02:53:31.590Z,0.88
2023-04-27T02:54:31.645Z,1.01
2023-04-27T02:55:31.696Z,1.17
2023-04-27T02:56:31.751Z,1.08
2023-04-27T02:57:31.760Z,1.17
2023-04-27T02:58:31.822Z,0.84
2023-04-27T02:59:31.840Z,1.26
2023-04-27T03:00:31.906Z,1.14
2023-04-27T03:01:31.934Z,0.90
2023-04-27T03:02:32.014Z,1.09
2023-04-27T03:03:32.150Z,1.27
2023-04-27T03:04:32.029Z,1.18
2023-04-27T03:05:32.015Z,0.99
2023-04-27T03:06:31.917Z,1.29
2023-04-27T03:07:31.897Z,0.94
2023-04-27T03:08:31.894Z,1.31
2023-04-27T03:09:31.854Z,1.02
2023-04-27T03:10:31.855Z,1.16
2023-04-27T03:11:31.822Z,1.00
2023-04-27T03:12:31.802Z,1.09
2023-04-27T03:13:31.758Z,1.29
2023-04-27T03:14:31.792Z,1.19
2023-04-27T03:15:31.831Z,1.18
2023-04-27T03:16:31.868Z,1.05
2023-04-27T03:17:31.969Z,1.11
2023-04-27T03:18:31.948Z,1.22
2023-04-27T03:19:31.973Z,1.21
2023-04-27T03:20:32.092Z,1.08
2023-04-27T03:21:32.077Z,1.06
2023-04-27T03:22:32.120Z,0.96
2023-04-27T03:23:32.138Z,1.06
2023-04-27T03:24:32.166Z,1.16
2023-04-27T03:25:32.226Z,1.18
2023-04-27T03:26:32.250Z,1.10
2023-04-27T03:27:32.298Z,1.08
2023-04-27T03:28:32.340Z,0.89
2023-04-27T03:29:32.379Z,1.56
2023-04-27T03:30:32.435Z,0.81
2023-04-27T03:31:32.488Z,1.52
2023-04-27T03:32:32.521Z,1.04
2023-04-27T03:33:32.575Z,0.97
2023-04-27T03:34:32.594Z,0.83
2023-04-27T03:35:32.646Z,1.02
2023-04-27T03:36:32.689Z,1.07
2023-04-27T03:37:32.741Z,1.43
2023-04-27T03:38:32.778Z,1.07
2023-04-27T03:39:32.819Z,1.25
2023-04-27T03:40:32.856Z,1.15
2023-04-27T03:41:32.897Z,0.94
2023-04-27T03:42:32.946Z,1.17
2023-04-27T03:43:32.976Z,1.00
2023-04-27T03:44:33.030Z,1.33
2023-04-27T03:45:33.080Z,1.29
2023-04-27T03:46:33.165Z,0.97
2023-04-27T03:47:33.146Z,1.25
2023-04-27T03:48:33.223Z,1.04
2023-04-27T03:49:33.230Z,1.16
2023-04-27T03:50:33.286Z,1.26
2023-04-27T03:51:33.369Z,1.14
2023-04-27T03:52:33.359Z,0.83
2023-04-27T03:53:33.378Z,1.30
2023-04-27T03:54:33.423Z,1.20
2023-04-27T03:55:33.464Z,1.07
2023-04-27T03:56:33.500Z,1.06
2023-04-27T03:57:33.541Z,1.00
2023-04-27T03:58:33.605Z,1.38
2023-04-27T03:59:33.628Z,1.17
2023-04-27T04:00:33.668Z,1.11
2023-04-27T04:01:33.716Z,1.26
2023-04-27T04:02:33.837Z,1.25
2023-04-27T04:03:34.001Z,1.04
2023-04-27T04:04:33.899Z,1.15
2023-04-27T04:05:33.901Z,0.84
2023-04-27T04:06:33.928Z,1.02
2023-04-27T04:07:33.977Z,1.18
2023-04-27T04:08:34.005Z,1.19
2023-04-27T04:09:34.056Z,1.07
2023-04-27T04:10:34.094Z,1.17
2023-04-27T04:11:34.134Z,1.16
2023-04-27T04:12:34.190Z,1.40
2023-04-27T04:13:34.238Z,1.05
2023-04-27T04:14:34.214Z,0.93
2023-04-27T04:15:34.175Z,1.14
2023-04-27T04:16:34.164Z,1.11
2023-04-27T04:17:34.169Z,1.30
2023-04-27T04:18:34.095Z,1.20
2023-04-27T04:19:34.064Z,1.10
2023-04-27T04:20:34.053Z,1.14
2023-04-27T04:21:34.042Z,1.15
2023-04-27T04:22:34.008Z,1.07
2023-04-27T04:23:34.035Z,1.00
2023-04-27T04:24:34.097Z,1.13
2023-04-27T04:25:34.126Z,1.20
2023-04-27T04:26:34.178Z,1.22
2023-04-27T04:27:34.215Z,1.19
2023-04-27T04:28:34.262Z,1.04
2023-04-27T04:29:34.297Z,1.06
2023-04-27T04:30:34.357Z,1.51
2023-04-27T04:31:34.426Z,1.53
2023-04-27T04:32:34.440Z,1.12
2023-04-27T04:33:34.477Z,1.24
2023-04-27T04:34:34.510Z,1.43
2023-04-27T04:35:34.547Z,1.09
2023-04-27T04:36:34.591Z,1.03
2023-04-27T04:37:34.680Z,1.22
2023-04-27T04:38:34.679Z,1.14
2023-04-27T04:39:34.764Z,1.04
2023-04-27T04:40:34.750Z,1.49
2023-04-27T04:41:34.785Z,1.48
2023-04-27T04:42:34.842Z,1.32
2023-04-27T04:43:34.886Z,1.56
2023-04-27T04:44:34.924Z,1.51
2023-04-27T04:45:34.954Z,1.11
2023-04-27T04:46:35.096Z,1.19
2023-04-27T04:47:35.103Z,1.13
2023-04-27T04:48:35.070Z,1.48
2023-04-27T04:49:35.106Z,1.44
2023-04-27T04:50:35.155Z,1.46
2023-04-27T04:51:35.180Z,1.37
2023-04-27T04:52:35.226Z,1.45
2023-04-27T04:53:35.294Z,1.22
2023-04-27T04:54:35.311Z,1.20
2023-04-27T04:55:35.359Z,1.87
2023-04-27T04:56:35.392Z,1.36
2023-04-27T04:57:35.433Z,1.49
2023-04-27T04:58:35.494Z,1.58
2023-04-27T04:59:35.520Z,1.51
2023-04-27T05:00:35.585Z,1.35
2023-04-27T05:01:35.751Z,1.85
2023-04-27T05:02:35.872Z,1.91
2023-04-27T05:03:36.049Z,1.76
2023-04-27T05:04:35.925Z,1.79
2023-04-27T05:05:35.910Z,2.70
2023-04-27T05:06:35.827Z,1.87
2023-04-27T05:07:35.855Z,3.28
2023-04-27T05:08:35.887Z,2.18
2023-04-27T05:09:35.923Z,1.96
2023-04-27T05:10:35.983Z,2.35
2023-04-27T05:11:36.057Z,2.45
2023-04-27T05:12:36.068Z,2.87
2023-04-27T05:13:36.105Z,2.35
2023-04-27T05:14:36.118Z,2.41
2023-04-27T05:15:36.156Z,2.88
2023-04-27T05:16:36.311Z,2.54
2023-04-27T05:17:36.244Z,2.55
2023-04-27T05:18:36.293Z,2.63
2023-04-27T05:19:36.310Z,2.52
2023-04-27T05:20:36.348Z,2.26
2023-04-27T05:21:36.598Z,2.49
2023-04-27T05:22:36.422Z,2.67
2023-04-27T05:23:36.468Z,2.63
2023-04-27T05:24:36.504Z,2.64
2023-04-27T05:25:36.553Z,2.63
2023-04-27T05:26:36.525Z,2.89
2023-04-27T05:27:36.504Z,2.77
2023-04-27T05:28:36.495Z,3.07
2023-04-27T05:29:36.459Z,3.04
2023-04-27T05:30:36.436Z,2.63
2023-04-27T05:31:36.523Z,2.93
2023-04-27T05:32:36.498Z,2.40
2023-04-27T05:33:36.563Z,3.02
2023-04-27T05:34:36.334Z,2.31
2023-04-27T05:35:36.423Z,2.71
2023-04-27T05:36:36.411Z,2.19
2023-04-27T05:37:36.416Z,2.44
2023-04-27T05:38:36.443Z,2.71
2023-04-27T05:39:36.497Z,2.16
2023-04-27T05:40:36.531Z,2.83
2023-04-27T05:41:36.516Z,2.66
2023-04-27T05:42:36.578Z,2.29
2023-04-27T05:43:36.604Z,2.48
2023-04-27T05:44:36.580Z,2.43
2023-04-27T05:45:36.620Z,2.31
2023-04-27T05:46:38.676Z,2.49
2023-04-27T05:47:36.668Z,4.28
2023-04-27T05:48:36.666Z,2.74
2023-04-27T05:49:36.767Z,2.62
2023-04-27T05:50:36.640Z,2.96
2023-04-27T05:51:36.736Z,2.67
2023-04-27T05:52:38.235Z,2.20
2023-04-27T05:53:36.646Z,2.99
2023-04-27T05:54:36.619Z,2.91
2023-04-27T05:55:36.623Z,3.05
2023-04-27T05:56:36.611Z,2.85
2023-04-27T05:57:36.615Z,2.68
2023-04-27T05:58:36.592Z,2.54
2023-04-27T05:59:36.601Z,3.05
2023-04-27T06:00:36.570Z,2.32
2023-04-27T06:01:36.534Z,2.32
2023-04-27T06:02:36.609Z,2.77
2023-04-27T06:03:36.838Z,2.12
2023-04-27T06:04:36.469Z,2.50
2023-04-27T06:05:36.479Z,2.68
2023-04-27T06:06:36.363Z,2.84
2023-04-27T06:07:36.346Z,2.33
2023-04-27T06:08:36.301Z,2.51
2023-04-27T06:09:36.274Z,2.64
2023-04-27T06:10:36.242Z,2.67
2023-04-27T06:11:36.208Z,2.83
2023-04-27T06:12:36.243Z,2.45
2023-04-27T06:13:36.139Z,2.64
2023-04-27T06:14:36.177Z,2.60
2023-04-27T06:15:36.094Z,2.27
2023-04-27T06:16:37.011Z,2.63
2023-04-27T06:17:36.034Z,2.49
2023-04-27T06:18:35.980Z,2.92
2023-04-27T06:19:35.954Z,2.92
2023-04-27T06:20:35.922Z,2.54
2023-04-27T06:21:35.877Z,2.36
2023-04-27T06:22:36.164Z,3.07
2023-04-27T06:23:35.828Z,2.98
2023-04-27T06:24:35.871Z,3.21
2023-04-27T06:25:35.805Z,3.36
2023-04-27T06:26:35.728Z,2.78
2023-04-27T06:27:35.905Z,2.54
2023-04-27T06:28:35.706Z,3.25
2023-04-27T06:29:35.672Z,3.48
2023-04-27T06:30:36.997Z,3.12
2023-04-27T06:31:35.779Z,3.40
2023-04-27T06:32:35.732Z,2.81
2023-04-27T06:33:35.695Z,2.95
2023-04-27T06:34:35.734Z,2.78
2023-04-27T06:35:35.793Z,2.88
2023-04-27T06:36:35.744Z,2.89
2023-04-27T06:37:35.725Z,3.26
2023-04-27T06:38:35.673Z,2.75
2023-04-27T06:39:35.643Z,2.96
2023-04-27T06:40:35.630Z,3.17
2023-04-27T06:41:35.606Z,3.16
2023-04-27T06:42:36.492Z,2.62
2023-04-27T06:43:35.528Z,2.61
2023-04-27T06:44:35.535Z,3.02
2023-04-27T06:45:35.503Z,2.82
2023-04-27T06:46:35.538Z,2.72
2023-04-27T06:47:35.447Z,3.46
2023-04-27T06:48:35.424Z,2.67
2023-04-27T06:49:35.375Z,2.88
2023-04-27T06:50:35.405Z,2.62
2023-04-27T06:51:35.334Z,2.55
2023-04-27T06:52:35.404Z,3.42
2023-04-27T06:53:35.389Z,2.89
2023-04-27T06:54:35.419Z,3.37
2023-04-27T06:55:35.379Z,3.29
2023-04-27T06:56:35.420Z,3.14
2023-04-27T06:57:36.091Z,2.96
2023-04-27T06:58:35.509Z,2.57
2023-04-27T06:59:35.510Z,2.79
2023-04-27T07:00:35.600Z,2.76
2023-04-27T07:01:35.698Z,2.90
2023-04-27T07:02:35.793Z,2.57
2023-04-27T07:03:35.812Z,2.34
2023-04-27T07:04:35.699Z,2.76
2023-04-27T07:05:35.712Z,2.88
2023-04-27T07:06:35.727Z,2.19
2023-04-27T07:07:35.916Z,2.52
2023-04-27T07:08:35.891Z,2.64
2023-04-27T07:09:35.895Z,2.81
2023-04-27T07:10:36.733Z,2.26
2023-04-27T07:11:35.977Z,2.31
2023-04-27T07:12:36.117Z,2.67
2023-04-27T07:13:35.983Z,2.74
2023-04-27T07:14:36.201Z,2.38
2023-04-27T07:15:36.021Z,2.43
2023-04-27T07:16:36.185Z,2.92
2023-04-27T07:17:36.171Z,2.25
2023-04-27T07:18:36.172Z,2.40
2023-04-27T07:19:36.243Z,2.84
2023-04-27T07:20:36.169Z,2.48
2023-04-27T07:21:36.530Z,2.50
2023-04-27T07:22:36.234Z,2.31
2023-04-27T07:23:36.242Z,2.31
2023-04-27T07:24:36.274Z,2.41
2023-04-27T07:25:36.316Z,2.43
2023-04-27T07:26:36.530Z,2.51
2023-04-27T07:27:36.374Z,2.33
2023-04-27T07:28:36.402Z,2.96
2023-04-27T07:29:36.420Z,2.31
2023-04-27T07:30:36.456Z,2.46
2023-04-27T07:31:36.459Z,2.14
2023-04-27T07:32:36.406Z,3.14
2023-04-27T07:33:36.362Z,1.92
2023-04-27T07:34:49.023Z,2.40
2023-04-27T07:35:37.288Z,2.69
2023-04-27T07:36:36.308Z,2.81
2023-04-27T07:37:36.214Z,2.86
2023-04-27T07:38:36.183Z,2.48
2023-04-27T07:39:36.150Z,2.65
2023-04-27T07:40:36.104Z,2.97
2023-04-27T07:41:36.094Z,2.26
2023-04-27T07:42:36.075Z,3.42
2023-04-27T07:43:36.166Z,2.89
2023-04-27T07:44:36.109Z,2.79
2023-04-27T07:45:36.184Z,3.06
2023-04-27T07:46:36.187Z,2.40
2023-04-27T07:47:36.209Z,2.17
2023-04-27T07:48:36.137Z,2.53
2023-04-27T07:49:36.187Z,2.80
2023-04-27T07:50:36.083Z,2.80
2023-04-27T07:51:36.079Z,2.42
2023-04-27T07:52:36.023Z,2.86
2023-04-27T07:53:35.957Z,2.21
2023-04-27T07:54:35.926Z,2.34
2023-04-27T07:55:35.958Z,2.19
2023-04-27T07:56:35.859Z,2.26
2023-04-27T07:57:35.850Z,2.66
2023-04-27T07:58:35.784Z,2.19
2023-04-27T07:59:35.758Z,2.11
2023-04-27T08:00:35.746Z,2.47
2023-04-27T08:01:35.712Z,2.46
2023-04-27T08:02:35.926Z,2.09
2023-04-27T08:03:36.027Z,2.44
2023-04-27T08:04:36.185Z,2.40
2023-04-27T08:05:36.061Z,2.27
2023-04-27T08:06:36.147Z,2.50
2023-04-27T08:07:39.542Z,1.92
2023-04-27T08:08:36.711Z,2.22
2023-04-27T08:09:35.674Z,1.87
2023-04-27T08:10:35.700Z,2.26
2023-04-27T08:11:35.633Z,2.32
2023-04-27T08:12:35.599Z,1.95
2023-04-27T08:13:36.555Z,1.97
2023-04-27T08:14:35.494Z,1.62
2023-04-27T08:15:36.023Z,2.15
2023-04-27T08:16:35.471Z,2.08
2023-04-27T08:17:36.084Z,1.92
2023-04-27T08:18:35.346Z,1.76
2023-04-27T08:19:35.324Z,1.73
2023-04-27T08:20:35.319Z,1.93
2023-04-27T08:21:35.282Z,1.76
2023-04-27T08:22:35.221Z,2.32
2023-04-27T08:23:35.255Z,2.00
2023-04-27T08:24:35.117Z,1.79
2023-04-27T08:25:35.099Z,1.93
2023-04-27T08:26:35.068Z,1.59
2023-04-27T08:27:35.059Z,2.04
2023-04-27T08:28:34.991Z,1.78
2023-04-27T08:29:35.091Z,2.24
2023-04-27T08:30:34.927Z,2.31
2023-04-27T08:31:34.943Z,2.21
2023-04-27T08:32:34.869Z,1.91
2023-04-27T08:33:34.820Z,2.32
2023-04-27T08:34:34.768Z,1.66
2023-04-27T08:35:34.731Z,1.82
2023-04-27T08:36:34.666Z,1.92
2023-04-27T08:37:34.637Z,1.85
2023-04-27T08:38:34.596Z,1.79
2023-04-27T08:39:34.569Z,2.44
2023-04-27T08:40:34.527Z,2.10
2023-04-27T08:41:34.517Z,2.30
2023-04-27T08:42:34.480Z,3.09
2023-04-27T08:43:34.970Z,2.15
2023-04-27T08:44:34.367Z,2.05
2023-04-27T08:45:34.407Z,2.22
2023-04-27T08:46:34.371Z,2.28
2023-04-27T08:47:42.885Z,2.08
2023-04-27T08:48:35.205Z,2.29
2023-04-27T08:49:34.151Z,2.49
2023-04-27T08:50:34.214Z,2.49
2023-04-27T08:51:34.194Z,2.29
2023-04-27T08:52:34.116Z,2.42
2023-04-27T08:53:34.017Z,2.23
2023-04-27T08:54:34.103Z,2.13
2023-04-27T08:55:33.975Z,2.81
2023-04-27T08:56:34.251Z,2.44
2023-04-27T08:57:34.088Z,2.36
2023-04-27T08:58:33.860Z,2.44
2023-04-27T08:59:33.844Z,2.23
2023-04-27T09:00:33.816Z,2.71
2023-04-27T09:01:33.916Z,2.29
2023-04-27T09:02:33.998Z,2.09
2023-04-27T09:03:34.091Z,2.30
2023-04-27T09:04:34.019Z,2.72
2023-04-27T09:05:33.976Z,2.33
2023-04-27T09:06:33.881Z,2.46
2023-04-27T09:07:33.795Z,2.25
2023-04-27T09:08:33.792Z,2.27
2023-04-27T09:09:33.769Z,2.26
2023-04-27T09:10:33.690Z,1.97
2023-04-27T09:11:33.711Z,2.26
2023-04-27T09:12:33.716Z,1.71
2023-04-27T09:13:33.626Z,1.85
2023-04-27T09:14:33.613Z,2.12
2023-04-27T09:15:33.825Z,2.09
2023-04-27T09:16:33.710Z,1.82
2023-04-27T09:17:33.854Z,1.65
2023-04-27T09:18:33.722Z,2.20
2023-04-27T09:19:33.751Z,2.10
2023-04-27T09:20:33.787Z,2.22
2023-04-27T09:21:33.791Z,1.95
2023-04-27T09:22:33.817Z,1.88
2023-04-27T09:23:33.846Z,2.21
2023-04-27T09:24:33.862Z,1.62
2023-04-27T09:25:33.898Z,1.73
2023-04-27T09:26:33.934Z,1.52
2023-04-27T09:27:33.869Z,2.21
2023-04-27T09:28:33.828Z,1.59
2023-04-27T09:29:33.802Z,1.90
2023-04-27T09:30:33.755Z,1.91
2023-04-27T09:31:33.773Z,1.74
2023-04-27T09:32:33.697Z,1.66
2023-04-27T09:33:33.736Z,1.58
2023-04-27T09:34:33.617Z,1.61
2023-04-27T09:35:33.597Z,2.10
2023-04-27T09:36:33.661Z,1.78
2023-04-27T09:37:33.581Z,1.97
2023-04-27T09:38:33.628Z,1.66
2023-04-27T09:39:33.625Z,1.82
2023-04-27T09:40:33.527Z,2.11
2023-04-27T09:41:33.503Z,1.93
2023-04-27T09:42:33.419Z,1.92
2023-04-27T09:43:33.392Z,1.92
2023-04-27T09:44:33.408Z,1.55
2023-04-27T09:45:33.355Z,1.62
2023-04-27T09:46:33.292Z,2.10
2023-04-27T09:47:33.288Z,1.98
2023-04-27T09:48:33.218Z,1.93
2023-04-27T09:49:33.231Z,1.99
2023-04-27T09:50:33.227Z,1.89
2023-04-27T09:51:33.299Z,1.95
2023-04-27T09:52:33.282Z,1.75
2023-04-27T09:53:33.274Z,1.80
2023-04-27T09:54:33.328Z,2.53
2023-04-27T09:55:33.297Z,2.06
2023-04-27T09:56:33.315Z,2.04
2023-04-27T09:57:33.342Z,2.43
2023-04-27T09:58:33.349Z,2.29
2023-04-27T09:59:33.377Z,2.42
2023-04-27T10:00:33.387Z,2.18
2023-04-27T10:01:35.262Z,1.58
2023-04-27T10:02:42.949Z,2.56
2023-04-27T10:03:34.406Z,1.95
2023-04-27T10:04:33.475Z,2.17
2023-04-27T10:05:33.231Z,2.06
2023-04-27T10:06:33.196Z,1.79
2023-04-27T10:07:33.159Z,1.75
2023-04-27T10:08:33.127Z,1.83
2023-04-27T10:09:33.076Z,1.86
2023-04-27T10:10:33.078Z,1.96
2023-04-27T10:11:32.981Z,1.84
2023-04-27T10:12:33.001Z,1.96
2023-04-27T10:13:33.072Z,1.82
2023-04-27T10:14:33.040Z,1.91
2023-04-27T10:15:33.039Z,2.23
2023-04-27T10:16:33.104Z,1.96
2023-04-27T10:17:33.172Z,1.61
2023-04-27T10:18:33.089Z,1.77
2023-04-27T10:19:33.141Z,1.96
2023-04-27T10:20:33.096Z,1.79
2023-04-27T10:21:33.152Z,1.99
2023-04-27T10:22:33.142Z,1.76
2023-04-27T10:23:33.150Z,1.75
2023-04-27T10:24:33.173Z,1.88
2023-04-27T10:25:33.170Z,1.67
2023-04-27T10:26:33.815Z,1.58
2023-04-27T10:27:33.288Z,2.24
2023-04-27T10:28:33.295Z,1.76
2023-04-27T10:29:33.281Z,1.32
2023-04-27T10:30:33.407Z,1.77
2023-04-27T10:31:33.448Z,1.43
2023-04-27T10:32:33.362Z,1.59
2023-04-27T10:33:33.337Z,1.58
2023-04-27T10:34:33.362Z,1.94
2023-04-27T10:35:33.377Z,1.80
2023-04-27T10:36:33.667Z,1.57
2023-04-27T10:37:33.415Z,1.49
2023-04-27T10:38:33.384Z,2.03
2023-04-27T10:39:46.983Z,1.28
2023-04-27T10:40:34.406Z,1.46
2023-04-27T10:41:33.280Z,1.18
2023-04-27T10:42:33.150Z,1.49
2023-04-27T10:43:33.126Z,1.67
2023-04-27T10:44:33.074Z,1.17
2023-04-27T10:45:33.016Z,1.50
2023-04-27T10:46:33.014Z,1.54
2023-04-27T10:47:33.013Z,1.31
2023-04-27T10:48:32.914Z,1.58
2023-04-27T10:49:32.885Z,1.61
2023-04-27T10:50:32.798Z,1.04
2023-04-27T10:51:32.754Z,1.34
2023-04-27T10:52:32.730Z,1.32
2023-04-27T10:53:33.625Z,1.29
2023-04-27T10:54:32.738Z,1.27
2023-04-27T10:55:32.689Z,1.52
2023-04-27T10:56:32.552Z,1.55
2023-04-27T10:57:32.536Z,1.18
2023-04-27T10:58:45.329Z,1.42
2023-04-27T10:59:33.489Z,1.21
2023-04-27T11:00:32.369Z,2.07
2023-04-27T11:01:32.446Z,1.37
2023-04-27T11:02:32.468Z,1.79
2023-04-27T11:03:32.319Z,1.61
2023-04-27T11:04:32.189Z,1.33
2023-04-27T11:05:32.146Z,1.34
2023-04-27T11:06:32.172Z,1.89
2023-04-27T11:07:32.027Z,1.42
2023-04-27T11:08:32.001Z,1.60
2023-04-27T11:09:32.081Z,1.25
2023-04-27T11:10:32.033Z,1.21
2023-04-27T11:11:31.985Z,1.31
2023-04-27T11:12:31.971Z,1.58
2023-04-27T11:13:32.083Z,1.15
2023-04-27T11:14:32.071Z,1.43
2023-04-27T11:15:32.101Z,1.20
2023-04-27T11:16:32.916Z,1.34
2023-04-27T11:17:32.065Z,1.33
2023-04-27T11:18:32.096Z,0.90
2023-04-27T11:19:32.003Z,1.21
2023-04-27T11:20:32.027Z,1.48
2023-04-27T11:21:32.082Z,0.95
2023-04-27T11:22:31.951Z,1.40
2023-04-27T11:23:31.920Z,1.17
2023-04-27T11:24:31.861Z,0.95
2023-04-27T11:25:32.619Z,1.27
2023-04-27T11:26:32.133Z,1.29
2023-04-27T11:27:31.752Z,1.38
2023-04-27T11:28:31.734Z,1.24
2023-04-27T11:29:34.446Z,1.17
2023-04-27T11:30:31.595Z,1.33
2023-04-27T11:31:31.580Z,1.09
2023-04-27T11:32:31.554Z,1.49
2023-04-27T11:33:31.424Z,1.13
2023-04-27T11:34:31.527Z,1.17
2023-04-27T11:35:31.400Z,1.24
2023-04-27T11:36:31.288Z,1.07
2023-04-27T11:37:31.385Z,1.28
2023-04-27T11:38:31.247Z,1.20
2023-04-27T11:39:31.156Z,1.24
2023-04-27T11:40:31.122Z,1.12
2023-04-27T11:41:31.299Z,1.29
2023-04-27T11:42:31.101Z,1.29
2023-04-27T11:43:31.125Z,1.25
2023-04-27T11:44:31.102Z,1.44
2023-04-27T11:45:31.121Z,1.19
2023-04-27T11:46:31.152Z,1.44
2023-04-27T11:47:31.178Z,0.95
2023-04-27T11:48:31.109Z,1.13
2023-04-27T11:49:31.123Z,0.87
2023-04-27T11:50:31.144Z,1.31
2023-04-27T11:51:31.125Z,1.26
2023-04-27T11:52:31.131Z,1.20
2023-04-27T11:53:31.153Z,1.29
2023-04-27T11:54:31.115Z,1.20
2023-04-27T11:55:31.118Z,1.14
2023-04-27T11:56:31.123Z,1.56
2023-04-27T11:57:31.127Z,1.58
2023-04-27T11:58:31.130Z,1.25
2023-04-27T11:59:31.120Z,1.27
2023-04-27T12:00:31.133Z,1.06
2023-04-27T12:01:37.790Z,0.87
2023-04-27T12:02:32.187Z,1.31
2023-04-27T12:03:31.244Z,1.25
2023-04-27T12:04:31.201Z,0.92
2023-04-27T12:05:31.108Z,1.19
2023-04-27T12:06:33.085Z,1.13
2023-04-27T12:07:30.830Z,1.15
2023-04-27T12:08:30.767Z,1.16
2023-04-27T12:09:30.732Z,1.00
2023-04-27T12:10:30.695Z,1.12
2023-04-27T12:11:30.636Z,1.08
2023-04-27T12:12:30.629Z,1.09
2023-04-27T12:13:30.545Z,1.34
2023-04-27T12:14:30.510Z,1.19
2023-04-27T12:15:30.461Z,1.02
2023-04-27T12:16:30.448Z,1.09
2023-04-27T12:17:30.459Z,1.07
2023-04-27T12:18:30.350Z,1.21
2023-04-27T12:19:30.317Z,0.95
2023-04-27T12:20:30.274Z,1.19
2023-04-27T12:21:30.265Z,0.97
2023-04-27T12:22:30.168Z,0.99
2023-04-27T12:23:30.161Z,1.09
2023-04-27T12:24:30.199Z,0.94
2023-04-27T12:25:30.109Z,1.08
2023-04-27T12:26:30.085Z,1.60
2023-04-27T12:27:30.091Z,0.99
2023-04-27T12:28:30.077Z,0.98
2023-04-27T12:29:30.081Z,1.37
2023-04-27T12:30:30.076Z,1.18
2023-04-27T12:31:30.149Z,0.93
2023-04-27T12:32:30.088Z,1.32
2023-04-27T12:33:30.109Z,0.96
2023-04-27T12:34:30.080Z,1.00
2023-04-27T12:35:30.145Z,1.39
2023-04-27T12:36:30.103Z,1.00
2023-04-27T12:37:30.099Z,0.68
2023-04-27T12:38:30.092Z,1.13
2023-04-27T12:39:30.070Z,0.95
2023-04-27T12:40:30.082Z,0.96
2023-04-27T12:41:30.075Z,1.06
2023-04-27T12:42:30.076Z,0.83
2023-04-27T12:43:30.059Z,0.99
2023-04-27T12:44:30.034Z,1.74
2023-04-27T12:45:30.035Z,1.04
2023-04-27T12:46:30.150Z,0.99
2023-04-27T12:47:49.826Z,0.90
2023-04-27T12:48:31.083Z,0.90
2023-04-27T12:49:29.942Z,1.05
2023-04-27T12:50:29.907Z,1.51
2023-04-27T12:51:29.843Z,1.17
2023-04-27T12:52:29.849Z,0.97
2023-04-27T12:53:29.760Z,1.11
2023-04-27T12:54:29.730Z,1.00
2023-04-27T12:55:33.725Z,1.04
2023-04-27T12:56:29.647Z,1.34
2023-04-27T12:57:29.610Z,0.92
2023-04-27T12:58:29.607Z,1.13
2023-04-27T12:59:29.520Z,0.96
2023-04-27T13:00:29.622Z,1.16
2023-04-27T13:01:29.503Z,1.11
2023-04-27T13:02:29.544Z,1.19
2023-04-27T13:03:29.534Z,0.92
2023-04-27T13:04:29.504Z,0.92
2023-04-27T13:05:31.332Z,0.98
2023-04-27T13:06:29.240Z,1.04
2023-04-27T13:07:29.209Z,1.25
2023-04-27T13:08:29.793Z,1.06
2023-04-27T13:09:29.114Z,0.86
2023-04-27T13:10:29.062Z,1.17
2023-04-27T13:11:29.025Z,0.91
2023-04-27T13:12:28.986Z,1.04
2023-04-27T13:13:28.947Z,1.14
2023-04-27T13:14:28.879Z,0.85
2023-04-27T13:15:28.836Z,0.97
2023-04-27T13:16:28.884Z,0.99
2023-04-27T13:17:28.767Z,1.00
2023-04-27T13:18:28.721Z,1.16